sensor_id;sensor_type;location;lat;lon;timestamp;P1;durP1;ratioP1;P2;durP2;ratioP2
323;SDS011;149;51.094;17.002;2022-07-06T00:01:02;21.15;;;19.05;;
323;SDS011;149;51.094;17.002;2022-07-06T00:03:29;19.70;;;17.83;;
323;SDS011;149;51.094;17.002;2022-07-06T00:05:56;18.93;;;16.90;;
323;SDS011;149;51.094;17.002;2022-07-06T00:08:24;21.85;;;19.48;;
323;SDS011;149;51.094;17.002;2022-07-06T00:10:52;19.63;;;17.70;;
323;SDS011;149;51.094;17.002;2022-07-06T00:13:19;20.23;;;18.23;;
323;SDS011;149;51.094;17.002;2022-07-06T00:15:46;19.85;;;17.85;;
323;SDS011;149;51.094;17.002;2022-07-06T00:18:13;24.70;;;22.13;;
323;SDS011;149;51.094;17.002;2022-07-06T00:20:40;25.55;;;22.98;;
323;SDS011;149;51.094;17.002;2022-07-06T00:23:07;27.17;;;22.52;;
323;SDS011;149;51.094;17.002;2022-07-06T00:25:34;20.35;;;18.25;;
323;SDS011;149;51.094;17.002;2022-07-06T00:28:02;17.30;;;15.55;;
323;SDS011;149;51.094;17.002;2022-07-06T00:30:29;18.55;;;16.60;;
323;SDS011;149;51.094;17.002;2022-07-06T00:32:57;16.98;;;15.40;;
323;SDS011;149;51.094;17.002;2022-07-06T00:35:25;16.95;;;15.15;;
323;SDS011;149;51.094;17.002;2022-07-06T00:37:52;15.75;;;14.15;;
323;SDS011;149;51.094;17.002;2022-07-06T00:40:19;14.27;;;12.88;;
323;SDS011;149;51.094;17.002;2022-07-06T00:42:47;15.30;;;13.80;;
323;SDS011;149;51.094;17.002;2022-07-06T00:45:15;15.87;;;14.23;;
323;SDS011;149;51.094;17.002;2022-07-06T00:47:44;22.80;;;13.67;;
323;SDS011;149;51.094;17.002;2022-07-06T00:50:13;13.18;;;11.98;;
323;SDS011;149;51.094;17.002;2022-07-06T00:52:41;14.65;;;13.38;;
323;SDS011;149;51.094;17.002;2022-07-06T00:55:10;13.70;;;12.30;;
323;SDS011;149;51.094;17.002;2022-07-06T00:57:37;13.52;;;12.13;;
323;SDS011;149;51.094;17.002;2022-07-06T01:00:07;13.80;;;12.07;;
323;SDS011;149;51.094;17.002;2022-07-06T01:02:39;13.75;;;12.43;;
323;SDS011;149;51.094;17.002;2022-07-06T01:05:07;18.65;;;13.75;;
323;SDS011;149;51.094;17.002;2022-07-06T01:07:36;11.07;;;10.18;;
323;SDS011;149;51.094;17.002;2022-07-06T01:10:05;14.90;;;13.40;;
323;SDS011;149;51.094;17.002;2022-07-06T01:12:34;14.15;;;12.85;;
323;SDS011;149;51.094;17.002;2022-07-06T01:15:03;13.40;;;12.00;;
323;SDS011;149;51.094;17.002;2022-07-06T01:17:35;16.58;;;14.80;;
323;SDS011;149;51.094;17.002;2022-07-06T01:20:14;14.48;;;13.07;;
323;SDS011;149;51.094;17.002;2022-07-06T01:22:46;20.98;;;12.75;;
323;SDS011;149;51.094;17.002;2022-07-06T01:25:14;15.85;;;14.35;;
323;SDS011;149;51.094;17.002;2022-07-06T01:27:42;14.43;;;12.88;;
323;SDS011;149;51.094;17.002;2022-07-06T01:30:10;15.32;;;13.77;;
323;SDS011;149;51.094;17.002;2022-07-06T01:32:38;16.98;;;15.30;;
323;SDS011;149;51.094;17.002;2022-07-06T01:35:07;16.27;;;14.70;;
323;SDS011;149;51.094;17.002;2022-07-06T01:37:35;18.45;;;16.55;;
323;SDS011;149;51.094;17.002;2022-07-06T01:40:03;19.58;;;15.95;;
323;SDS011;149;51.094;17.002;2022-07-06T01:42:32;14.75;;;13.48;;
323;SDS011;149;51.094;17.002;2022-07-06T01:45:00;17.95;;;16.08;;
323;SDS011;149;51.094;17.002;2022-07-06T01:47:29;19.48;;;17.52;;
323;SDS011;149;51.094;17.002;2022-07-06T01:49:59;16.35;;;14.75;;
323;SDS011;149;51.094;17.002;2022-07-06T01:52:27;19.60;;;16.13;;
323;SDS011;149;51.094;17.002;2022-07-06T01:54:55;17.98;;;16.27;;
323;SDS011;149;51.094;17.002;2022-07-06T01:57:25;17.92;;;16.08;;
323;SDS011;149;51.094;17.002;2022-07-06T01:59:53;25.08;;;17.17;;
323;SDS011;149;51.094;17.002;2022-07-06T02:02:20;16.50;;;14.90;;
323;SDS011;149;51.094;17.002;2022-07-06T02:04:47;18.52;;;16.75;;
323;SDS011;149;51.094;17.002;2022-07-06T02:07:17;24.75;;;18.10;;
323;SDS011;149;51.094;17.002;2022-07-06T02:09:44;19.00;;;17.20;;
323;SDS011;149;51.094;17.002;2022-07-06T02:12:11;19.35;;;17.27;;
323;SDS011;149;51.094;17.002;2022-07-06T02:14:38;17.75;;;15.95;;
323;SDS011;149;51.094;17.002;2022-07-06T02:17:05;16.83;;;15.13;;
323;SDS011;149;51.094;17.002;2022-07-06T02:19:33;16.83;;;15.27;;
323;SDS011;149;51.094;17.002;2022-07-06T02:22:00;17.63;;;15.82;;
323;SDS011;149;51.094;17.002;2022-07-06T02:24:27;18.42;;;16.73;;
323;SDS011;149;51.094;17.002;2022-07-06T02:26:54;17.40;;;15.75;;
323;SDS011;149;51.094;17.002;2022-07-06T02:29:21;19.33;;;16.83;;
323;SDS011;149;51.094;17.002;2022-07-06T02:31:48;19.38;;;16.80;;
323;SDS011;149;51.094;17.002;2022-07-06T02:34:15;19.05;;;16.75;;
323;SDS011;149;51.094;17.002;2022-07-06T02:36:42;17.48;;;14.60;;
323;SDS011;149;51.094;17.002;2022-07-06T02:39:09;17.77;;;14.52;;
323;SDS011;149;51.094;17.002;2022-07-06T02:41:36;17.27;;;15.57;;
323;SDS011;149;51.094;17.002;2022-07-06T02:44:03;17.00;;;15.00;;
323;SDS011;149;51.094;17.002;2022-07-06T02:46:30;16.98;;;15.25;;
323;SDS011;149;51.094;17.002;2022-07-06T02:48:57;17.85;;;16.00;;
323;SDS011;149;51.094;17.002;2022-07-06T02:51:24;18.05;;;16.17;;
323;SDS011;149;51.094;17.002;2022-07-06T02:53:52;17.45;;;15.73;;
323;SDS011;149;51.094;17.002;2022-07-06T02:56:19;17.58;;;16.00;;
323;SDS011;149;51.094;17.002;2022-07-06T02:58:46;19.13;;;17.15;;
323;SDS011;149;51.094;17.002;2022-07-06T03:01:13;18.75;;;16.88;;
323;SDS011;149;51.094;17.002;2022-07-06T03:03:40;18.05;;;16.38;;
323;SDS011;149;51.094;17.002;2022-07-06T03:06:07;19.33;;;16.00;;
323;SDS011;149;51.094;17.002;2022-07-06T03:08:34;16.67;;;15.02;;
323;SDS011;149;51.094;17.002;2022-07-06T03:11:01;17.55;;;14.73;;
323;SDS011;149;51.094;17.002;2022-07-06T03:13:29;17.90;;;14.43;;
323;SDS011;149;51.094;17.002;2022-07-06T03:15:56;17.67;;;14.18;;
323;SDS011;149;51.094;17.002;2022-07-06T03:18:23;13.47;;;12.37;;
323;SDS011;149;51.094;17.002;2022-07-06T03:20:51;14.48;;;13.18;;
323;SDS011;149;51.094;17.002;2022-07-06T03:23:19;20.50;;;14.60;;
323;SDS011;149;51.094;17.002;2022-07-06T03:25:46;15.83;;;14.00;;
323;SDS011;149;51.094;17.002;2022-07-06T03:28:14;16.50;;;13.85;;
323;SDS011;149;51.094;17.002;2022-07-06T03:30:42;14.10;;;12.75;;
323;SDS011;149;51.094;17.002;2022-07-06T03:33:09;15.53;;;11.80;;
323;SDS011;149;51.094;17.002;2022-07-06T03:35:40;18.48;;;12.57;;
323;SDS011;149;51.094;17.002;2022-07-06T03:38:07;13.32;;;12.10;;
323;SDS011;149;51.094;17.002;2022-07-06T03:40:35;13.68;;;12.10;;
323;SDS011;149;51.094;17.002;2022-07-06T03:43:02;13.10;;;11.90;;
323;SDS011;149;51.094;17.002;2022-07-06T03:45:29;14.85;;;11.43;;
323;SDS011;149;51.094;17.002;2022-07-06T03:47:57;11.55;;;10.35;;
323;SDS011;149;51.094;17.002;2022-07-06T03:50:27;19.13;;;11.20;;
323;SDS011;149;51.094;17.002;2022-07-06T03:52:54;12.00;;;10.40;;
323;SDS011;149;51.094;17.002;2022-07-06T03:55:22;14.82;;;9.45;;
323;SDS011;149;51.094;17.002;2022-07-06T03:57:49;10.57;;;8.20;;
323;SDS011;149;51.094;17.002;2022-07-06T04:00:16;8.48;;;7.68;;
323;SDS011;149;51.094;17.002;2022-07-06T04:02:44;9.33;;;7.90;;
323;SDS011;149;51.094;17.002;2022-07-06T04:05:11;6.83;;;6.33;;
323;SDS011;149;51.094;17.002;2022-07-06T04:07:38;7.63;;;6.93;;
323;SDS011;149;51.094;17.002;2022-07-06T04:10:06;10.80;;;6.77;;
323;SDS011;149;51.094;17.002;2022-07-06T04:12:39;7.90;;;7.23;;
323;SDS011;149;51.094;17.002;2022-07-06T04:15:08;6.60;;;6.00;;
323;SDS011;149;51.094;17.002;2022-07-06T04:17:36;6.50;;;5.90;;
323;SDS011;149;51.094;17.002;2022-07-06T04:20:19;7.97;;;6.20;;
323;SDS011;149;51.094;17.002;2022-07-06T04:22:47;5.30;;;4.90;;
323;SDS011;149;51.094;17.002;2022-07-06T04:25:15;6.33;;;5.73;;
323;SDS011;149;51.094;17.002;2022-07-06T04:27:42;6.17;;;5.57;;
323;SDS011;149;51.094;17.002;2022-07-06T04:30:10;6.57;;;5.73;;
323;SDS011;149;51.094;17.002;2022-07-06T04:32:38;5.78;;;5.18;;
323;SDS011;149;51.094;17.002;2022-07-06T04:35:05;6.82;;;5.75;;
323;SDS011;149;51.094;17.002;2022-07-06T04:37:33;5.70;;;5.20;;
323;SDS011;149;51.094;17.002;2022-07-06T04:40:00;6.80;;;5.20;;
323;SDS011;149;51.094;17.002;2022-07-06T04:42:28;7.13;;;5.00;;
323;SDS011;149;51.094;17.002;2022-07-06T04:44:55;7.78;;;6.07;;
323;SDS011;149;51.094;17.002;2022-07-06T04:47:22;6.72;;;6.22;;
323;SDS011;149;51.094;17.002;2022-07-06T04:49:50;6.97;;;6.28;;
323;SDS011;149;51.094;17.002;2022-07-06T04:52:17;6.90;;;6.28;;
323;SDS011;149;51.094;17.002;2022-07-06T04:54:44;6.80;;;6.20;;
323;SDS011;149;51.094;17.002;2022-07-06T04:57:11;8.30;;;6.70;;
323;SDS011;149;51.094;17.002;2022-07-06T04:59:38;7.13;;;6.43;;
323;SDS011;149;51.094;17.002;2022-07-06T05:02:06;9.35;;;7.30;;
323;SDS011;149;51.094;17.002;2022-07-06T05:04:33;8.02;;;7.40;;
323;SDS011;149;51.094;17.002;2022-07-06T05:07:00;6.72;;;6.13;;
323;SDS011;149;51.094;17.002;2022-07-06T05:09:28;8.30;;;7.35;;
323;SDS011;149;51.094;17.002;2022-07-06T05:11:55;7.90;;;7.25;;
323;SDS011;149;51.094;17.002;2022-07-06T05:14:22;7.60;;;6.80;;
323;SDS011;149;51.094;17.002;2022-07-06T05:16:50;7.90;;;7.20;;
323;SDS011;149;51.094;17.002;2022-07-06T05:19:17;7.75;;;7.05;;
323;SDS011;149;51.094;17.002;2022-07-06T05:21:44;7.50;;;6.80;;
323;SDS011;149;51.094;17.002;2022-07-06T05:24:11;8.25;;;7.55;;
323;SDS011;149;51.094;17.002;2022-07-06T05:26:38;9.77;;;8.88;;
323;SDS011;149;51.094;17.002;2022-07-06T05:29:06;12.13;;;8.05;;
323;SDS011;149;51.094;17.002;2022-07-06T05:31:33;10.60;;;9.55;;
323;SDS011;149;51.094;17.002;2022-07-06T05:34:01;8.05;;;7.35;;
323;SDS011;149;51.094;17.002;2022-07-06T05:36:28;8.45;;;7.70;;
323;SDS011;149;51.094;17.002;2022-07-06T05:38:55;8.35;;;7.65;;
323;SDS011;149;51.094;17.002;2022-07-06T05:41:22;18.70;;;16.58;;
323;SDS011;149;51.094;17.002;2022-07-06T05:43:56;9.73;;;8.93;;
323;SDS011;149;51.094;17.002;2022-07-06T05:46:23;9.10;;;8.30;;
323;SDS011;149;51.094;17.002;2022-07-06T05:48:51;8.70;;;7.90;;
323;SDS011;149;51.094;17.002;2022-07-06T05:51:36;10.13;;;9.23;;
323;SDS011;149;51.094;17.002;2022-07-06T05:54:04;8.23;;;7.53;;
323;SDS011;149;51.094;17.002;2022-07-06T05:56:31;7.50;;;6.37;;
323;SDS011;149;51.094;17.002;2022-07-06T05:58:58;11.18;;;8.50;;
323;SDS011;149;51.094;17.002;2022-07-06T06:01:25;9.93;;;6.97;;
323;SDS011;149;51.094;17.002;2022-07-06T06:03:53;7.00;;;6.40;;
323;SDS011;149;51.094;17.002;2022-07-06T06:06:20;8.63;;;7.83;;
323;SDS011;149;51.094;17.002;2022-07-06T06:08:47;8.05;;;7.30;;
323;SDS011;149;51.094;17.002;2022-07-06T06:11:14;8.35;;;7.65;;
323;SDS011;149;51.094;17.002;2022-07-06T06:13:42;11.45;;;8.60;;
323;SDS011;149;51.094;17.002;2022-07-06T06:16:09;9.07;;;8.18;;
323;SDS011;149;51.094;17.002;2022-07-06T06:18:36;8.93;;;8.00;;
323;SDS011;149;51.094;17.002;2022-07-06T06:21:08;8.73;;;8.00;;
323;SDS011;149;51.094;17.002;2022-07-06T06:23:36;8.63;;;7.80;;
323;SDS011;149;51.094;17.002;2022-07-06T06:26:03;9.27;;;8.47;;
323;SDS011;149;51.094;17.002;2022-07-06T06:28:30;9.67;;;8.67;;
323;SDS011;149;51.094;17.002;2022-07-06T06:30:57;14.70;;;8.27;;
323;SDS011;149;51.094;17.002;2022-07-06T06:33:25;7.63;;;6.93;;
323;SDS011;149;51.094;17.002;2022-07-06T06:35:52;8.70;;;6.63;;
323;SDS011;149;51.094;17.002;2022-07-06T06:38:21;8.40;;;7.60;;
323;SDS011;149;51.094;17.002;2022-07-06T06:40:54;7.37;;;6.67;;
323;SDS011;149;51.094;17.002;2022-07-06T06:43:22;8.90;;;6.40;;
323;SDS011;149;51.094;17.002;2022-07-06T06:45:49;7.10;;;6.40;;
323;SDS011;149;51.094;17.002;2022-07-06T06:48:16;8.03;;;7.33;;
323;SDS011;149;51.094;17.002;2022-07-06T06:50:45;8.27;;;7.57;;
323;SDS011;149;51.094;17.002;2022-07-06T06:53:13;11.60;;;6.90;;
323;SDS011;149;51.094;17.002;2022-07-06T06:55:40;7.27;;;6.70;;
323;SDS011;149;51.094;17.002;2022-07-06T06:58:08;7.93;;;7.30;;
323;SDS011;149;51.094;17.002;2022-07-06T07:00:35;7.10;;;6.50;;
323;SDS011;149;51.094;17.002;2022-07-06T07:03:03;5.33;;;4.97;;
323;SDS011;149;51.094;17.002;2022-07-06T07:05:30;6.13;;;5.33;;
323;SDS011;149;51.094;17.002;2022-07-06T07:07:57;4.30;;;3.90;;
323;SDS011;149;51.094;17.002;2022-07-06T07:10:30;4.67;;;4.00;;
323;SDS011;149;51.094;17.002;2022-07-06T07:12:58;4.43;;;3.90;;
323;SDS011;149;51.094;17.002;2022-07-06T07:15:25;4.80;;;4.40;;
323;SDS011;149;51.094;17.002;2022-07-06T07:17:52;3.50;;;3.30;;
323;SDS011;149;51.094;17.002;2022-07-06T07:20:20;3.37;;;3.07;;
323;SDS011;149;51.094;17.002;2022-07-06T07:22:47;2.97;;;2.77;;
323;SDS011;149;51.094;17.002;2022-07-06T07:25:14;4.80;;;3.97;;
323;SDS011;149;51.094;17.002;2022-07-06T07:27:41;4.07;;;3.43;;
323;SDS011;149;51.094;17.002;2022-07-06T07:30:08;3.10;;;2.90;;
323;SDS011;149;51.094;17.002;2022-07-06T07:32:36;3.50;;;3.20;;
323;SDS011;149;51.094;17.002;2022-07-06T07:35:06;3.60;;;3.20;;
323;SDS011;149;51.094;17.002;2022-07-06T07:37:35;3.57;;;3.27;;
323;SDS011;149;51.094;17.002;2022-07-06T07:40:02;3.77;;;3.47;;
323;SDS011;149;51.094;17.002;2022-07-06T07:42:31;3.10;;;2.90;;
323;SDS011;149;51.094;17.002;2022-07-06T07:44:59;3.13;;;2.87;;
323;SDS011;149;51.094;17.002;2022-07-06T07:47:26;4.43;;;2.80;;
323;SDS011;149;51.094;17.002;2022-07-06T07:49:54;3.70;;;2.70;;
323;SDS011;149;51.094;17.002;2022-07-06T07:52:21;2.40;;;2.27;;
323;SDS011;149;51.094;17.002;2022-07-06T07:54:48;2.70;;;2.50;;
323;SDS011;149;51.094;17.002;2022-07-06T07:57:35;2.57;;;2.37;;
323;SDS011;149;51.094;17.002;2022-07-06T08:00:03;2.13;;;2.03;;
323;SDS011;149;51.094;17.002;2022-07-06T08:02:31;2.47;;;1.70;;
323;SDS011;149;51.094;17.002;2022-07-06T08:04:58;3.17;;;2.80;;
323;SDS011;149;51.094;17.002;2022-07-06T08:07:25;2.27;;;2.07;;
323;SDS011;149;51.094;17.002;2022-07-06T08:09:52;2.10;;;2.00;;
323;SDS011;149;51.094;17.002;2022-07-06T08:12:20;2.00;;;1.90;;
323;SDS011;149;51.094;17.002;2022-07-06T08:14:47;4.70;;;2.20;;
323;SDS011;149;51.094;17.002;2022-07-06T08:17:14;2.07;;;1.97;;
323;SDS011;149;51.094;17.002;2022-07-06T08:19:41;2.33;;;2.20;;
323;SDS011;149;51.094;17.002;2022-07-06T08:22:08;2.10;;;2.00;;
323;SDS011;149;51.094;17.002;2022-07-06T08:24:36;2.23;;;2.03;;
323;SDS011;149;51.094;17.002;2022-07-06T08:27:03;3.87;;;1.97;;
323;SDS011;149;51.094;17.002;2022-07-06T08:29:30;1.80;;;1.70;;
323;SDS011;149;51.094;17.002;2022-07-06T08:31:58;2.47;;;1.70;;
323;SDS011;149;51.094;17.002;2022-07-06T08:34:36;1.60;;;1.50;;
323;SDS011;149;51.094;17.002;2022-07-06T08:37:03;1.70;;;1.60;;
323;SDS011;149;51.094;17.002;2022-07-06T08:39:30;1.70;;;1.60;;
323;SDS011;149;51.094;17.002;2022-07-06T08:41:57;2.30;;;2.10;;
323;SDS011;149;51.094;17.002;2022-07-06T08:44:27;3.13;;;2.30;;
323;SDS011;149;51.094;17.002;2022-07-06T08:46:56;2.60;;;2.40;;
323;SDS011;149;51.094;17.002;2022-07-06T08:49:24;2.10;;;2.00;;
323;SDS011;149;51.094;17.002;2022-07-06T08:51:53;6.70;;;1.60;;
323;SDS011;149;51.094;17.002;2022-07-06T08:54:20;2.27;;;1.80;;
323;SDS011;149;51.094;17.002;2022-07-06T08:56:49;2.37;;;2.17;;
323;SDS011;149;51.094;17.002;2022-07-06T08:59:16;4.10;;;1.90;;
323;SDS011;149;51.094;17.002;2022-07-06T09:01:45;2.27;;;2.07;;
323;SDS011;149;51.094;17.002;2022-07-06T09:04:17;2.10;;;1.87;;
323;SDS011;149;51.094;17.002;2022-07-06T09:06:48;3.17;;;2.30;;
323;SDS011;149;51.094;17.002;2022-07-06T09:09:20;1.77;;;1.67;;
323;SDS011;149;51.094;17.002;2022-07-06T09:11:49;2.23;;;2.10;;
323;SDS011;149;51.094;17.002;2022-07-06T09:14:17;1.90;;;1.80;;
323;SDS011;149;51.094;17.002;2022-07-06T09:16:51;2.30;;;2.10;;
323;SDS011;149;51.094;17.002;2022-07-06T09:19:28;3.50;;;2.20;;
323;SDS011;149;51.094;17.002;2022-07-06T09:21:55;1.87;;;1.77;;
323;SDS011;149;51.094;17.002;2022-07-06T09:24:23;2.80;;;2.60;;
323;SDS011;149;51.094;17.002;2022-07-06T09:26:54;2.63;;;2.43;;
323;SDS011;149;51.094;17.002;2022-07-06T09:29:28;1.97;;;1.87;;
323;SDS011;149;51.094;17.002;2022-07-06T09:32:00;2.93;;;2.70;;
323;SDS011;149;51.094;17.002;2022-07-06T09:34:45;4.33;;;1.93;;
323;SDS011;149;51.094;17.002;2022-07-06T09:37:13;3.60;;;1.97;;
323;SDS011;149;51.094;17.002;2022-07-06T09:39:41;3.50;;;2.30;;
323;SDS011;149;51.094;17.002;2022-07-06T09:42:10;6.40;;;2.57;;
323;SDS011;149;51.094;17.002;2022-07-06T09:44:38;2.40;;;2.30;;
323;SDS011;149;51.094;17.002;2022-07-06T09:47:07;2.67;;;2.47;;
323;SDS011;149;51.094;17.002;2022-07-06T09:49:38;3.10;;;2.30;;
323;SDS011;149;51.094;17.002;2022-07-06T09:52:09;2.77;;;2.57;;
323;SDS011;149;51.094;17.002;2022-07-06T09:54:37;5.43;;;2.80;;
323;SDS011;149;51.094;17.002;2022-07-06T09:57:06;2.53;;;2.33;;
323;SDS011;149;51.094;17.002;2022-07-06T09:59:35;5.43;;;1.90;;
323;SDS011;149;51.094;17.002;2022-07-06T10:02:03;2.57;;;2.40;;
323;SDS011;149;51.094;17.002;2022-07-06T10:04:32;1.87;;;1.77;;
323;SDS011;149;51.094;17.002;2022-07-06T10:07:00;2.37;;;2.00;;
323;SDS011;149;51.094;17.002;2022-07-06T10:09:28;8.37;;;2.07;;
323;SDS011;149;51.094;17.002;2022-07-06T10:11:57;3.63;;;1.87;;
323;SDS011;149;51.094;17.002;2022-07-06T10:14:33;1.93;;;1.83;;
323;SDS011;149;51.094;17.002;2022-07-06T10:17:01;5.67;;;3.07;;
323;SDS011;149;51.094;17.002;2022-07-06T10:19:30;2.07;;;1.87;;
323;SDS011;149;51.094;17.002;2022-07-06T10:21:59;3.90;;;2.00;;
323;SDS011;149;51.094;17.002;2022-07-06T10:24:27;2.73;;;1.93;;
323;SDS011;149;51.094;17.002;2022-07-06T10:26:56;4.00;;;1.93;;
323;SDS011;149;51.094;17.002;2022-07-06T10:29:24;1.87;;;1.77;;
323;SDS011;149;51.094;17.002;2022-07-06T10:31:51;8.27;;;2.20;;
323;SDS011;149;51.094;17.002;2022-07-06T10:34:20;1.60;;;1.50;;
323;SDS011;149;51.094;17.002;2022-07-06T10:36:49;2.60;;;1.73;;
323;SDS011;149;51.094;17.002;2022-07-06T10:39:31;1.77;;;1.67;;
323;SDS011;149;51.094;17.002;2022-07-06T10:45:07;4.03;;;2.40;;
323;SDS011;149;51.094;17.002;2022-07-06T10:47:35;1.83;;;1.73;;
323;SDS011;149;51.094;17.002;2022-07-06T10:50:02;3.40;;;2.43;;
323;SDS011;149;51.094;17.002;2022-07-06T10:52:57;1.70;;;1.60;;
323;SDS011;149;51.094;17.002;2022-07-06T10:55:32;1.50;;;1.40;;
323;SDS011;149;51.094;17.002;2022-07-06T10:58:02;1.70;;;1.60;;
323;SDS011;149;51.094;17.002;2022-07-06T11:06:11;2.50;;;2.30;;
323;SDS011;149;51.094;17.002;2022-07-06T11:08:49;1.93;;;1.60;;
323;SDS011;149;51.094;17.002;2022-07-06T11:11:53;2.30;;;2.10;;
323;SDS011;149;51.094;17.002;2022-07-06T11:14:18;2.57;;;1.57;;
323;SDS011;149;51.094;17.002;2022-07-06T11:24:18;2.20;;;2.00;;
323;SDS011;149;51.094;17.002;2022-07-06T11:26:47;4.50;;;1.80;;
323;SDS011;149;51.094;17.002;2022-07-06T11:29:17;2.53;;;1.93;;
323;SDS011;149;51.094;17.002;2022-07-06T11:31:47;2.27;;;2.10;;
323;SDS011;149;51.094;17.002;2022-07-06T11:34:20;2.20;;;1.80;;
323;SDS011;149;51.094;17.002;2022-07-06T11:36:55;2.73;;;1.80;;
323;SDS011;149;51.094;17.002;2022-07-06T11:39:27;2.20;;;2.00;;
323;SDS011;149;51.094;17.002;2022-07-06T11:41:59;1.63;;;1.53;;
323;SDS011;149;51.094;17.002;2022-07-06T11:44:27;7.00;;;2.60;;
323;SDS011;149;51.094;17.002;2022-07-06T11:46:55;2.23;;;1.93;;
323;SDS011;149;51.094;17.002;2022-07-06T11:49:23;1.73;;;1.63;;
323;SDS011;149;51.094;17.002;2022-07-06T11:51:50;1.80;;;1.70;;
323;SDS011;149;51.094;17.002;2022-07-06T11:54:18;1.77;;;1.67;;
323;SDS011;149;51.094;17.002;2022-07-06T11:56:48;1.90;;;1.80;;
323;SDS011;149;51.094;17.002;2022-07-06T11:59:20;3.00;;;2.00;;
323;SDS011;149;51.094;17.002;2022-07-06T12:04:31;1.70;;;1.60;;
323;SDS011;149;51.094;17.002;2022-07-06T12:07:05;1.90;;;1.80;;
323;SDS011;149;51.094;17.002;2022-07-06T12:09:35;4.70;;;2.13;;
323;SDS011;149;51.094;17.002;2022-07-06T12:12:04;1.70;;;1.60;;
323;SDS011;149;51.094;17.002;2022-07-06T12:14:33;5.03;;;2.00;;
323;SDS011;149;51.094;17.002;2022-07-06T12:17:05;4.07;;;2.27;;
323;SDS011;149;51.094;17.002;2022-07-06T12:19:33;1.63;;;1.53;;
323;SDS011;149;51.094;17.002;2022-07-06T12:22:02;1.60;;;1.40;;
323;SDS011;149;51.094;17.002;2022-07-06T12:24:30;2.20;;;1.53;;
323;SDS011;149;51.094;17.002;2022-07-06T12:27:20;1.37;;;1.27;;
323;SDS011;149;51.094;17.002;2022-07-06T12:29:47;1.50;;;1.40;;
323;SDS011;149;51.094;17.002;2022-07-06T12:32:21;3.10;;;1.80;;
323;SDS011;149;51.094;17.002;2022-07-06T12:35:04;1.27;;;1.17;;
323;SDS011;149;51.094;17.002;2022-07-06T12:37:35;1.30;;;1.20;;
323;SDS011;149;51.094;17.002;2022-07-06T12:40:02;2.40;;;1.33;;
323;SDS011;149;51.094;17.002;2022-07-06T12:42:48;5.60;;;1.47;;
323;SDS011;149;51.094;17.002;2022-07-06T12:45:15;2.93;;;1.60;;
323;SDS011;149;51.094;17.002;2022-07-06T12:47:59;3.13;;;1.30;;
323;SDS011;149;51.094;17.002;2022-07-06T12:50:31;1.70;;;1.60;;
323;SDS011;149;51.094;17.002;2022-07-06T12:53:01;1.60;;;1.50;;
323;SDS011;149;51.094;17.002;2022-07-06T12:55:30;2.13;;;1.30;;
323;SDS011;149;51.094;17.002;2022-07-06T12:57:58;2.90;;;1.57;;
323;SDS011;149;51.094;17.002;2022-07-06T13:00:25;2.70;;;1.53;;
323;SDS011;149;51.094;17.002;2022-07-06T13:02:53;1.47;;;1.37;;
323;SDS011;149;51.094;17.002;2022-07-06T13:05:36;2.30;;;1.37;;
323;SDS011;149;51.094;17.002;2022-07-06T13:08:05;1.20;;;1.10;;
323;SDS011;149;51.094;17.002;2022-07-06T13:10:33;0.90;;;0.90;;
323;SDS011;149;51.094;17.002;2022-07-06T13:13:02;1.87;;;1.40;;
323;SDS011;149;51.094;17.002;2022-07-06T13:15:29;1.57;;;1.47;;
323;SDS011;149;51.094;17.002;2022-07-06T13:17:57;1.30;;;1.20;;
323;SDS011;149;51.094;17.002;2022-07-06T13:20:24;2.07;;;1.90;;
323;SDS011;149;51.094;17.002;2022-07-06T13:22:51;2.47;;;2.27;;
323;SDS011;149;51.094;17.002;2022-07-06T13:25:18;1.93;;;1.27;;
323;SDS011;149;51.094;17.002;2022-07-06T13:27:45;1.20;;;1.10;;
323;SDS011;149;51.094;17.002;2022-07-06T13:30:13;1.43;;;1.10;;
323;SDS011;149;51.094;17.002;2022-07-06T13:32:40;1.60;;;1.50;;
323;SDS011;149;51.094;17.002;2022-07-06T13:35:08;1.30;;;1.00;;
323;SDS011;149;51.094;17.002;2022-07-06T13:37:36;1.73;;;1.50;;
323;SDS011;149;51.094;17.002;2022-07-06T13:40:03;3.00;;;2.03;;
323;SDS011;149;51.094;17.002;2022-07-06T13:42:30;1.50;;;1.23;;
323;SDS011;149;51.094;17.002;2022-07-06T13:44:58;1.60;;;1.50;;
323;SDS011;149;51.094;17.002;2022-07-06T13:47:25;1.80;;;1.70;;
323;SDS011;149;51.094;17.002;2022-07-06T13:49:52;2.60;;;1.63;;
323;SDS011;149;51.094;17.002;2022-07-06T13:52:19;1.43;;;1.23;;
323;SDS011;149;51.094;17.002;2022-07-06T13:54:46;1.87;;;1.70;;
323;SDS011;149;51.094;17.002;2022-07-06T13:57:13;3.10;;;1.80;;
323;SDS011;149;51.094;17.002;2022-07-06T13:59:41;1.37;;;1.27;;
323;SDS011;149;51.094;17.002;2022-07-06T14:02:09;2.10;;;1.70;;
323;SDS011;149;51.094;17.002;2022-07-06T14:04:37;1.90;;;1.80;;
323;SDS011;149;51.094;17.002;2022-07-06T14:07:05;1.70;;;1.53;;
323;SDS011;149;51.094;17.002;2022-07-06T14:09:33;1.93;;;1.60;;
323;SDS011;149;51.094;17.002;2022-07-06T14:12:01;1.70;;;1.13;;
323;SDS011;149;51.094;17.002;2022-07-06T14:14:28;2.53;;;1.80;;
323;SDS011;149;51.094;17.002;2022-07-06T14:16:56;2.53;;;1.30;;
323;SDS011;149;51.094;17.002;2022-07-06T14:19:23;1.63;;;1.53;;
323;SDS011;149;51.094;17.002;2022-07-06T14:21:51;1.70;;;1.60;;
323;SDS011;149;51.094;17.002;2022-07-06T14:24:18;1.73;;;1.60;;
323;SDS011;149;51.094;17.002;2022-07-06T14:26:45;2.17;;;1.87;;
323;SDS011;149;51.094;17.002;2022-07-06T14:29:13;2.07;;;1.90;;
323;SDS011;149;51.094;17.002;2022-07-06T14:31:40;1.80;;;1.60;;
323;SDS011;149;51.094;17.002;2022-07-06T14:34:07;1.50;;;1.40;;
323;SDS011;149;51.094;17.002;2022-07-06T14:36:35;2.37;;;1.60;;
323;SDS011;149;51.094;17.002;2022-07-06T14:39:04;2.70;;;1.63;;
323;SDS011;149;51.094;17.002;2022-07-06T14:41:31;1.67;;;1.57;;
323;SDS011;149;51.094;17.002;2022-07-06T14:43:58;2.23;;;1.50;;
323;SDS011;149;51.094;17.002;2022-07-06T14:46:26;2.10;;;1.90;;
323;SDS011;149;51.094;17.002;2022-07-06T14:48:53;1.93;;;1.63;;
323;SDS011;149;51.094;17.002;2022-07-06T14:51:21;2.37;;;1.67;;
323;SDS011;149;51.094;17.002;2022-07-06T14:53:48;2.33;;;1.37;;
323;SDS011;149;51.094;17.002;2022-07-06T14:56:19;1.80;;;1.70;;
323;SDS011;149;51.094;17.002;2022-07-06T14:58:47;2.40;;;2.20;;
323;SDS011;149;51.094;17.002;2022-07-06T15:01:34;2.27;;;2.10;;
323;SDS011;149;51.094;17.002;2022-07-06T15:04:01;2.13;;;1.93;;
323;SDS011;149;51.094;17.002;2022-07-06T15:06:29;1.87;;;1.77;;
323;SDS011;149;51.094;17.002;2022-07-06T15:09:16;2.83;;;2.00;;
323;SDS011;149;51.094;17.002;2022-07-06T15:11:43;2.93;;;2.30;;
323;SDS011;149;51.094;17.002;2022-07-06T15:14:11;1.60;;;1.50;;
323;SDS011;149;51.094;17.002;2022-07-06T15:16:39;3.13;;;2.03;;
323;SDS011;149;51.094;17.002;2022-07-06T15:19:06;2.80;;;1.90;;
323;SDS011;149;51.094;17.002;2022-07-06T15:21:34;2.03;;;1.63;;
323;SDS011;149;51.094;17.002;2022-07-06T15:24:01;2.20;;;1.60;;
323;SDS011;149;51.094;17.002;2022-07-06T15:26:29;2.40;;;1.70;;
323;SDS011;149;51.094;17.002;2022-07-06T15:28:56;2.70;;;1.53;;
323;SDS011;149;51.094;17.002;2022-07-06T15:31:24;1.70;;;1.60;;
323;SDS011;149;51.094;17.002;2022-07-06T15:33:51;1.37;;;1.27;;
323;SDS011;149;51.094;17.002;2022-07-06T15:36:18;1.20;;;1.10;;
323;SDS011;149;51.094;17.002;2022-07-06T15:38:45;3.53;;;2.00;;
323;SDS011;149;51.094;17.002;2022-07-06T15:41:13;1.40;;;1.30;;
323;SDS011;149;51.094;17.002;2022-07-06T15:43:40;2.00;;;1.80;;
323;SDS011;149;51.094;17.002;2022-07-06T15:46:08;2.93;;;1.53;;
323;SDS011;149;51.094;17.002;2022-07-06T15:48:35;1.70;;;1.60;;
323;SDS011;149;51.094;17.002;2022-07-06T15:51:03;1.07;;;0.90;;